Time;durP1;ratioP1;P1;durP2;ratioP2;P2;SDS_P1;SDS_P2;PMS_P1;PMS_P2;Temp;Humidity;BMP_temperature;BMP_pressure;BME280_temperature;BME280_humidity;BME280_pressure;Samples;Min_cycle;Max_cycle;Signal;HPM_P1;HPM_P2
2023/03/17 00:02:01;;;;;;;0.00;0.00;;;3.40;83.80;;;;;;4997868;28;20031;-77
2023/03/17 00:04:27;;;;;;;0.00;0.00;;;3.30;83.60;;;;;;4998215;28;20034;-77
2023/03/17 00:07:05;;;;;;;0.00;0.00;;;3.20;84.20;;;;;;4983428;28;20029;-76
2023/03/17 00:09:32;;;;;;;;;;;3.30;84.90;;;;;;4979033;28;20453;-76
2023/03/17 00:11:58;;;;;;;0.00;0.00;;;3.20;85.00;;;;;;4997220;28;19916;-77
2023/03/17 00:14:31;;;;;;;2.97;0.17;;;3.10;86.20;;;;;;4998106;28;20105;-77
2023/03/17 00:17:00;;;;;;;0.00;0.00;;;3.10;87.20;;;;;;4998137;28;20629;-77
2023/03/17 00:19:31;;;;;;;0.00;0.00;;;3.00;88.70;;;;;;4977574;28;20110;-77
2023/03/17 00:22:16;;;;;;;0.00;0.00;;;3.00;89.20;;;;;;4986385;28;20010;-76
2023/03/17 00:24:43;;;;;;;0.00;0.00;;;2.90;89.90;;;;;;4978869;28;20028;-76
2023/03/17 00:27:18;;;;;;;0.00;0.00;;;3.00;90.40;;;;;;4983898;28;20026;-77
2023/03/17 00:29:43;;;;;;;0.00;0.00;;;3.00;90.50;;;;;;4990592;28;20587;-77
2023/03/17 00:32:16;;;;;;;1.97;0.87;;;3.00;90.80;;;;;;4983609;28;20586;-77
2023/03/17 00:34:42;;;;;;;0.00;0.00;;;3.00;91.00;;;;;;5000758;28;20460;-76
2023/03/17 00:37:12;;;;;;;0.00;0.00;;;3.10;91.60;;;;;;4996658;28;20022;-77
2023/03/17 00:39:39;;;;;;;0.00;0.00;;;3.00;91.80;;;;;;4983468;28;20018;-79
2023/03/17 00:42:06;;;;;;;0.00;0.00;;;2.90;91.80;;;;;;4976930;28;20506;-79
2023/03/17 00:44:36;;;;;;;0.00;0.00;;;2.90;92.20;;;;;;4982492;28;20033;-79
2023/03/17 00:47:10;;;;;;;0.10;0.10;;;2.90;91.90;;;;;;4979058;28;20038;-79
2023/03/17 00:49:36;;;;;;;1.65;1.55;;;3.00;92.10;;;;;;4987260;28;20045;-79
2023/03/17 00:52:03;;;;;;;0.00;0.00;;;2.90;92.30;;;;;;4977419;28;20043;-79
2023/03/17 00:54:28;;;;;;;;;;;2.90;92.30;;;;;;5001083;28;21462;-79
2023/03/17 00:57:11;;;;;;;0.00;0.00;;;3.00;91.80;;;;;;5001337;28;19909;-80
2023/03/17 00:59:42;;;;;;;0.00;0.00;;;3.00;92.30;;;;;;4978036;28;20023;-79
2023/03/17 01:02:15;;;;;;;0.17;0.17;;;2.90;91.80;;;;;;4984021;28;20072;-80
2023/03/17 01:05:00;;;;;;;0.00;0.00;;;2.90;91.80;;;;;;4974619;28;20061;-80
2023/03/17 01:07:29;;;;;;;0.00;0.00;;;2.90;91.80;;;;;;4981731;28;20022;-78
2023/03/17 01:09:55;;;;;;;0.00;0.00;;;3.00;91.60;;;;;;4978131;28;20025;-77
2023/03/17 01:12:22;;;;;;;0.00;0.00;;;3.00;91.40;;;;;;4981722;28;20085;-77
2023/03/17 01:14:49;;;;;;;0.00;0.00;;;2.90;91.80;;;;;;5000438;28;20030;-77
2023/03/17 01:17:19;;;;;;;0.00;0.00;;;3.10;91.70;;;;;;4981566;28;20018;-77
2023/03/17 01:19:46;;;;;;;0.00;0.00;;;3.00;91.60;;;;;;4998537;28;20384;-76
2023/03/17 01:22:19;;;;;;;0.00;0.00;;;3.00;91.70;;;;;;4984687;28;20479;-77
2023/03/17 01:24:50;;;;;;;0.00;0.00;;;2.90;91.80;;;;;;4996373;28;20045;-76
2023/03/17 01:27:19;;;;;;;0.00;0.00;;;2.90;92.00;;;;;;5001033;28;20027;-76
2023/03/17 01:29:50;;;;;;;0.00;0.00;;;3.10;92.10;;;;;;4981961;28;20029;-76
2023/03/17 01:32:17;;;;;;;0.00;0.00;;;2.90;92.90;;;;;;4978919;28;20153;-76
2023/03/17 01:34:46;;;;;;;0.00;0.00;;;2.90;92.30;;;;;;4997139;28;20014;-76
2023/03/17 01:37:13;;;;;;;0.00;0.00;;;2.90;92.30;;;;;;4985807;28;20061;-76
2023/03/17 01:39:47;;;;;;;0.00;0.00;;;3.00;91.90;;;;;;4981180;28;20046;-76
2023/03/17 01:42:25;;;;;;;0.00;0.00;;;3.10;91.30;;;;;;4988988;28;20026;-76
2023/03/17 01:45:02;;;;;;;0.00;0.00;;;3.10;91.50;;;;;;4984695;28;20026;-76
2023/03/17 01:47:32;;;;;;;0.00;0.00;;;3.10;91.70;;;;;;5002410;28;20022;-76
2023/03/17 01:50:07;;;;;;;0.00;0.00;;;3.10;92.40;;;;;;4983758;28;20027;-76
2023/03/17 01:52:38;;;;;;;0.00;0.00;;;3.00;92.40;;;;;;4983969;28;20030;-76
2023/03/17 01:55:10;;;;;;;0.00;0.00;;;2.90;93.10;;;;;;4999684;28;20086;-76
2023/03/17 01:57:40;;;;;;;0.00;0.00;;;3.00;92.60;;;;;;4983294;28;20085;-76
2023/03/17 02:00:12;;;;;;;0.00;0.00;;;2.90;93.80;;;;;;4999495;28;20026;-76
2023/03/17 02:02:40;;;;;;;0.00;0.00;;;2.80;94.00;;;;;;4976503;28;20046;-76
2023/03/17 02:05:10;;;;;;;0.55;0.55;;;2.80;94.40;;;;;;4982512;28;20419;-76
2023/03/17 02:07:37;;;;;;;0.00;0.00;;;2.80;93.80;;;;;;4995376;28;20033;-76
2023/03/17 02:10:05;;;;;;;0.00;0.00;;;2.70;93.60;;;;;;4994866;28;20077;-76
2023/03/17 02:12:39;;;;;;;0.00;0.00;;;2.80;94.00;;;;;;4993124;28;20034;-76
2023/03/17 02:15:08;;;;;;;0.00;0.00;;;2.70;93.40;;;;;;4993979;28;20033;-77
2023/03/17 02:17:36;;;;;;;0.00;0.00;;;2.70;94.20;;;;;;4975783;28;20106;-77
2023/03/17 02:20:31;;;;;;;0.10;0.10;;;2.70;93.80;;;;;;4980099;28;20025;-77
2023/03/17 02:22:58;;;;;;;0.00;0.00;;;2.80;93.80;;;;;;4994074;28;20026;-77
2023/03/17 02:25:29;;;;;;;0.00;0.00;;;2.90;93.00;;;;;;4994663;28;20034;-77
2023/03/17 02:28:07;;;;;;;0.00;0.00;;;2.90;93.30;;;;;;4983485;28;20022;-77
2023/03/17 02:30:36;;;;;;;0.00;0.00;;;2.80;93.60;;;;;;4997069;28;20060;-80
2023/03/17 02:33:06;;;;;;;0.00;0.00;;;2.70;94.50;;;;;;4985224;28;20132;-77
2023/03/17 02:35:42;;;;;;;0.00;0.00;;;2.70;95.00;;;;;;4977934;28;20030;-76
2023/03/17 02:38:16;;;;;;;0.00;0.00;;;2.70;94.90;;;;;;4981221;28;20153;-77
2023/03/17 02:40:48;;;;;;;0.00;0.00;;;2.70;94.90;;;;;;4981155;28;20022;-76
2023/03/17 02:43:14;;;;;;;0.00;0.00;;;2.70;96.10;;;;;;4974165;28;20077;-77
2023/03/17 02:45:54;;;;;;;0.00;0.00;;;2.60;95.90;;;;;;4978973;28;20384;-76
2023/03/17 02:48:23;;;;;;;0.10;0.10;;;2.50;96.30;;;;;;4979930;28;20043;-77
2023/03/17 02:50:56;;;;;;;0.00;0.00;;;2.60;95.80;;;;;;4977034;28;20387;-77
2023/03/17 02:53:24;;;;;;;0.00;0.00;;;2.70;95.50;;;;;;4988980;28;20022;-77
2023/03/17 02:55:52;;;;;;;0.08;0.08;;;2.70;95.40;;;;;;4994682;28;20530;-76
2023/03/17 02:58:21;;;;;;;0.00;0.00;;;3.00;96.20;;;;;;4991411;28;20783;-77
2023/03/17 03:00:48;;;;;;;0.00;0.00;;;2.60;96.50;;;;;;4996212;28;20510;-77
2023/03/17 03:03:16;;;;;;;0.00;0.00;;;2.60;96.80;;;;;;4994382;28;20560;-77
2023/03/17 03:05:52;;;;;;;0.00;0.00;;;2.60;96.60;;;;;;4980190;28;20027;-77
2023/03/17 03:08:21;;;;;;;0.00;0.00;;;2.60;96.30;;;;;;4978736;28;20022;-77
2023/03/17 03:10:47;;;;;;;0.00;0.00;;;2.60;96.80;;;;;;4978604;28;20514;-77
2023/03/17 03:13:13;;;;;;;;;;;2.70;95.90;;;;;;4984271;28;20034;-77
2023/03/17 03:15:44;;;;;;;0.00;0.00;;;2.70;96.00;;;;;;4981110;28;19982;-77
2023/03/17 03:18:11;;;;;;;0.00;0.00;;;2.60;96.50;;;;;;4994385;28;20025;-77
2023/03/17 03:20:37;;;;;;;0.00;0.00;;;2.60;96.80;;;;;;4977247;28;20049;-78
2023/03/17 03:23:04;;;;;;;0.00;0.00;;;2.70;96.50;;;;;;4976823;28;20053;-78
2023/03/17 03:25:32;;;;;;;0.00;0.00;;;2.80;96.40;;;;;;4976924;28;20269;-78
2023/03/17 03:27:58;;;;;;;0.00;0.00;;;2.80;96.20;;;;;;4973135;28;20500;-77
2023/03/17 03:30:24;;;;;;;0.00;0.00;;;2.90;96.30;;;;;;4977730;28;20515;-77
2023/03/17 03:33:00;;;;;;;0.00;0.00;;;2.80;96.40;;;;;;4996269;28;20022;-79
2023/03/17 03:35:28;;;;;;;0.00;0.00;;;2.80;96.80;;;;;;4995073;28;20088;-79
2023/03/17 03:37:55;;;;;;;0.00;0.00;;;2.80;96.80;;;;;;4980043;28;20931;-78
2023/03/17 03:40:22;;;;;;;;;;;2.70;96.90;;;;;;4979390;28;20035;-77
2023/03/17 03:42:49;;;;;;;0.20;0.20;;;2.80;97.10;;;;;;4979057;28;19910;-77
2023/03/17 03:45:15;;;;;;;0.00;0.00;;;3.00;97.00;;;;;;4993429;28;20076;-77
2023/03/17 03:47:40;;;;;;;0.00;0.00;;;2.90;96.70;;;;;;4995165;28;20439;-78
2023/03/17 03:50:09;;;;;;;0.00;0.00;;;2.90;96.80;;;;;;4980067;28;20046;-78
2023/03/17 03:52:43;;;;;;;0.00;0.00;;;2.90;96.70;;;;;;4978836;28;20324;-76
2023/03/17 03:55:10;;;;;;;0.00;0.00;;;3.00;96.20;;;;;;4976411;28;20451;-78
2023/03/17 03:57:37;;;;;;;0.00;0.00;;;2.90;96.60;;;;;;4983939;28;20029;-78
2023/03/17 04:00:07;;;;;;;0.47;0.47;;;2.80;96.30;;;;;;4980016;28;20030;-77
2023/03/17 04:02:46;;;;;;;0.00;0.00;;;2.80;96.20;;;;;;4979885;28;20076;-77
2023/03/17 04:05:14;;;;;;;0.00;0.00;;;2.90;96.00;;;;;;4999865;28;20049;-76
2023/03/17 04:07:42;;;;;;;0.00;0.00;;;2.90;96.00;;;;;;4990557;28;20018;-78
2023/03/17 04:10:11;;;;;;;0.00;0.00;;;3.00;95.50;;;;;;4995951;28;20029;-78
2023/03/17 04:12:41;;;;;;;0.00;0.00;;;3.00;95.30;;;;;;4998305;28;20100;-77
2023/03/17 04:15:10;;;;;;;0.00;0.00;;;3.10;95.20;;;;;;4995674;28;20023;-77
2023/03/17 04:17:37;;;;;;;0.00;0.00;;;3.10;95.10;;;;;;4995792;28;20421;-78
2023/03/17 04:20:07;;;;;;;0.00;0.00;;;3.00;95.10;;;;;;4983196;28;20033;-78
2023/03/17 04:22:34;;;;;;;0.00;0.00;;;3.00;95.30;;;;;;4998585;28;20758;-77
2023/03/17 04:25:09;;;;;;;0.10;0.10;;;3.00;95.10;;;;;;4998571;28;20432;-78
2023/03/17 04:27:43;;;;;;;0.00;0.00;;;3.00;95.20;;;;;;4980419;28;20022;-77
2023/03/17 04:30:15;;;;;;;0.00;0.00;;;2.90;95.50;;;;;;4979645;28;20022;-76
2023/03/17 04:32:48;;;;;;;0.00;0.00;;;2.80;95.90;;;;;;5002855;28;20029;-77
2023/03/17 04:35:17;;;;;;;0.00;0.00;;;2.90;95.50;;;;;;4977256;28;20623;-78
2023/03/17 04:37:45;;;;;;;0.00;0.00;;;2.90;95.50;;;;;;4985574;28;20030;-76
2023/03/17 04:40:12;;;;;;;0.00;0.00;;;2.80;95.70;;;;;;4980452;28;20018;-76
2023/03/17 04:42:39;;;;;;;;;;;2.80;96.00;;;;;;4979024;28;20041;-77
2023/03/17 04:45:08;;;;;;;0.00;0.00;;;2.70;96.00;;;;;;4982280;28;19906;-77
2023/03/17 04:47:36;;;;;;;0.00;0.00;;;2.90;95.70;;;;;;4987890;28;20277;-78
2023/03/17 04:50:04;;;;;;;0.00;0.00;;;2.90;95.80;;;;;;4988024;28;20026;-78
2023/03/17 04:52:35;;;;;;;0.00;0.00;;;2.80;96.00;;;;;;5002277;28;20117;-78
2023/03/17 04:55:08;;;;;;;0.00;0.00;;;2.80;96.00;;;;;;4998738;28;20042;-76
2023/03/17 04:57:37;;;;;;;0.00;0.00;;;2.80;96.00;;;;;;5003831;28;20078;-78
2023/03/17 05:00:07;;;;;;;0.00;0.00;;;2.70;96.30;;;;;;5003573;28;20298;-77
2023/03/17 05:02:37;;;;;;;0.00;0.00;;;2.70;96.20;;;;;;5000631;28;20164;-77
2023/03/17 05:05:05;;;;;;;0.43;0.43;;;2.80;96.10;;;;;;5008165;28;20022;-78
2023/03/17 05:07:44;;;;;;;0.00;0.00;;;2.70;96.20;;;;;;4986147;28;21459;-76
2023/03/17 05:10:11;;;;;;;0.00;0.00;;;2.80;96.20;;;;;;4979382;28;20026;-76
2023/03/17 05:12:38;;;;;;;0.00;0.00;;;2.80;96.20;;;;;;4986440;28;20022;-76
2023/03/17 05:15:04;;;;;;;0.00;0.00;;;3.00;95.30;;;;;;4997316;28;20030;-77
2023/03/17 05:17:30;;;;;;;0.00;0.00;;;3.20;95.10;;;;;;4982194;28;20034;-78
2023/03/17 05:19:58;;;;;;;0.00;0.00;;;3.60;94.10;;;;;;4982533;28;20591;-77
2023/03/17 05:22:27;;;;;;;0.00;0.00;;;3.80;93.50;;;;;;4995746;28;20026;-77
2023/03/17 05:25:00;;;;;;;0.00;0.00;;;4.30;92.40;;;;;;4977176;28;20030;-77
2023/03/17 05:27:32;;;;;;;0.00;0.00;;;4.50;91.70;;;;;;4998207;28;20501;-76
2023/03/17 05:30:01;;;;;;;0.00;0.00;;;4.60;91.40;;;;;;4982305;28;20018;-77
2023/03/17 05:32:45;;;;;;;0.25;0.25;;;4.70;91.00;;;;;;4986455;28;20029;-75
2023/03/17 05:35:11;;;;;;;0.43;0.43;;;4.50;90.50;;;;;;4999080;28;20054;-76
2023/03/17 05:37:39;;;;;;;0.00;0.00;;;4.50;90.60;;;;;;4985515;28;20030;-76
2023/03/17 05:40:09;;;;;;;0.00;0.00;;;5.00;88.90;;;;;;4997049;28;20451;-77
2023/03/17 05:42:41;;;;;;;0.00;0.00;;;5.40;87.80;;;;;;5002084;28;20526;-76
2023/03/17 05:45:08;;;;;;;0.00;0.00;;;6.10;83.90;;;;;;4975479;28;20045;-75
2023/03/17 05:47:35;;;;;;;0.00;0.00;;;6.70;80.00;;;;;;4980420;28;20034;-75
2023/03/17 05:50:06;;;;;;;0.00;0.00;;;7.00;77.40;;;;;;4977301;28;20030;-76
2023/03/17 05:52:40;;;;;;;0.00;0.00;;;7.10;75.30;;;;;;4980875;28;20027;-77
2023/03/17 05:55:07;;;;;;;0.00;0.00;;;7.40;74.90;;;;;;5000845;28;20018;-77
2023/03/17 05:57:42;;;;;;;0.52;0.52;;;7.80;73.50;;;;;;4996215;28;20121;-76
2023/03/17 06:00:10;;;;;;;0.00;0.00;;;8.00;70.70;;;;;;4985084;28;20026;-77
2023/03/17 06:02:38;;;;;;;0.10;0.10;;;8.60;68.70;;;;;;4980882;28;20475;-76
2023/03/17 06:05:07;;;;;;;0.00;0.00;;;9.10;66.30;;;;;;4995037;28;20022;-77
2023/03/17 06:07:40;;;;;;;0.05;0.05;;;9.50;65.20;;;;;;4984923;28;20101;-79
2023/03/17 06:10:08;;;;;;;0.15;0.15;;;9.80;63.50;;;;;;4981169;28;20018;-79
2023/03/17 06:12:36;;;;;;;0.80;0.47;;;10.00;62.00;;;;;;4998953;28;20477;-77
2023/03/17 06:15:04;;;;;;;0.00;0.00;;;9.70;61.80;;;;;;4980333;28;20022;-82
2023/03/17 06:17:30;;;;;;;0.00;0.00;;;9.70;61.80;;;;;;4997391;28;20030;-81
2023/03/17 06:20:05;;;;;;;0.00;0.00;;;9.10;62.60;;;;;;5004221;28;20076;-79
2023/03/17 06:22:36;;;;;;;0.00;0.00;;;8.80;63.40;;;;;;4980139;28;21042;-79
2023/03/17 06:25:03;;;;;;;0.13;0.13;;;8.30;64.50;;;;;;4983221;28;20026;-79
2023/03/17 06:27:39;;;;;;;0.00;0.00;;;8.20;65.10;;;;;;4995698;28;20037;-76
2023/03/17 06:30:10;;;;;;;0.00;0.00;;;8.60;65.10;;;;;;4976223;28;20018;-77
2023/03/17 06:32:38;;;;;;;0.10;0.10;;;9.10;63.70;;;;;;4997154;28;20038;-77
2023/03/17 06:35:07;;;;;;;0.00;0.00;;;10.00;61.50;;;;;;5000115;28;21538;-77
2023/03/17 06:37:36;;;;;;;0.00;0.00;;;10.70;59.50;;;;;;4995435;28;20512;-77
2023/03/17 06:40:10;;;;;;;0.00;0.00;;;11.10;57.70;;;;;;4984946;28;20026;-79
2023/03/17 06:42:36;;;;;;;0.00;0.00;;;11.40;57.70;;;;;;4987185;28;20022;-79
2023/03/17 06:45:09;;;;;;;0.00;0.00;;;11.40;55.60;;;;;;4983002;28;20026;-80
2023/03/17 06:47:36;;;;;;;0.00;0.00;;;11.10;56.50;;;;;;4980860;28;20022;-79
2023/03/17 06:50:04;;;;;;;0.10;0.10;;;11.40;55.70;;;;;;5001714;28;20087;-79
2023/03/17 06:52:37;;;;;;;0.00;0.00;;;11.50;55.20;;;;;;4982300;28;20026;-79
2023/03/17 06:55:05;;;;;;;0.38;0.13;;;11.40;55.30;;;;;;4994917;28;20069;-79
2023/03/17 06:57:31;;;;;;;0.00;0.00;;;11.20;55.60;;;;;;4995245;28;20129;-79
2023/03/17 06:59:59;;;;;;;0.00;0.00;;;11.70;54.90;;;;;;4995493;28;20022;-79
2023/03/17 07:02:33;;;;;;;0.00;0.00;;;12.30;53.20;;;;;;4995316;28;20650;-79
2023/03/17 07:05:03;;;;;;;0.00;0.00;;;12.60;52.80;;;;;;4985926;28;20101;-79
2023/03/17 07:07:29;;;;;;;0.25;0.25;;;13.40;50.70;;;;;;4979940;28;20015;-79
2023/03/17 07:09:58;;;;;;;0.00;0.00;;;14.70;49.10;;;;;;4994995;28;20353;-79
2023/03/17 07:12:24;;;;;;;0.00;0.00;;;15.00;47.50;;;;;;4979666;28;20026;-79
2023/03/17 07:14:49;;;;;;;0.00;0.00;;;15.50;46.50;;;;;;4994907;28;20030;-79
2023/03/17 07:17:21;;;;;;;0.00;0.00;;;15.00;46.80;;;;;;4985405;28;20571;-78
2023/03/17 07:19:53;;;;;;;0.00;0.00;;;14.90;46.60;;;;;;4994208;28;20479;-79
2023/03/17 07:22:22;;;;;;;0.00;0.00;;;15.10;46.10;;;;;;4979168;28;20041;-79
2023/03/17 07:24:48;;;;;;;0.00;0.00;;;15.50;45.80;;;;;;4998585;28;20030;-79
2023/03/17 07:27:24;;;;;;;0.00;0.00;;;16.10;45.00;;;;;;4998278;28;20038;-78
2023/03/17 07:30:01;;;;;;;0.00;0.00;;;15.60;45.10;;;;;;4994847;28;20160;-79
2023/03/17 07:32:38;;;;;;;0.00;0.00;;;15.10;45.40;;;;;;4981497;28;20029;-79
2023/03/17 07:35:08;;;;;;;;;;;14.70;45.90;;;;;;4983780;28;20038;-79
2023/03/17 07:37:35;;;;;;;0.00;0.00;;;15.50;45.70;;;;;;4995030;28;20335;-79
2023/03/17 07:40:01;;;;;;;;;;;15.90;44.10;;;;;;4999821;28;20099;-79
2023/03/17 07:42:28;;;;;;;0.00;0.00;;;16.20;44.70;;;;;;4978238;28;20536;-81
2023/03/17 07:44:55;;;;;;;0.05;0.05;;;15.80;44.50;;;;;;4999041;28;20029;-80
2023/03/17 07:47:22;;;;;;;0.00;0.00;;;15.30;45.00;;;;;;4994357;28;20046;-80
2023/03/17 07:49:48;;;;;;;0.35;0.25;;;15.70;45.10;;;;;;4978958;28;20034;-80
2023/03/17 07:52:24;;;;;;;0.00;0.00;;;16.30;44.30;;;;;;4993105;28;20022;-79
2023/03/17 07:55:03;;;;;;;0.00;0.00;;;15.30;44.60;;;;;;4993242;28;20058;-80
2023/03/17 07:57:28;;;;;;;0.00;0.00;;;14.00;46.40;;;;;;5000802;28;21428;-76
2023/03/17 08:00:00;;;;;;;0.60;0.30;;;13.70;47.10;;;;;;4981891;28;20026;-81
2023/03/17 08:02:28;;;;;;;0.00;0.00;;;13.20;48.40;;;;;;4986049;28;20109;-81
2023/03/17 08:04:55;;;;;;;0.00;0.00;;;13.80;48.00;;;;;;4999687;28;20472;-80
2023/03/17 08:07:21;;;;;;;0.00;0.00;;;13.90;47.80;;;;;;4996984;28;20028;-77
2023/03/17 08:09:48;;;;;;;0.00;0.00;;;14.50;46.80;;;;;;4995474;28;20086;-76
2023/03/17 08:12:13;;;;;;;0.00;0.00;;;15.10;45.90;;;;;;4974407;28;20609;-77
2023/03/17 08:14:40;;;;;;;0.15;0.15;;;15.00;46.20;;;;;;4994079;28;20109;-76
2023/03/17 08:17:06;;;;;;;0.00;0.00;;;15.20;45.30;;;;;;4997075;28;20052;-76
2023/03/17 08:19:36;;;;;;;0.00;0.00;;;14.50;45.70;;;;;;4995230;28;20499;-76
2023/03/17 08:22:02;;;;;;;0.30;0.30;;;13.90;46.70;;;;;;4980215;28;20026;-76
2023/03/17 08:24:28;;;;;;;;;;;13.80;46.70;;;;;;4980634;28;20054;-77
2023/03/17 08:26:54;;;;;;;0.00;0.00;;;13.60;46.80;;;;;;4995531;28;19972;-75
2023/03/17 08:29:20;;;;;;;0.00;0.00;;;13.90;46.80;;;;;;4983808;28;20044;-76
2023/03/17 08:31:46;;;;;;;0.00;0.00;;;14.70;45.40;;;;;;4993334;28;20611;-75
2023/03/17 08:34:15;;;;;;;0.00;0.00;;;14.30;45.00;;;;;;4985312;28;20101;-75
2023/03/17 08:36:45;;;;;;;0.00;0.00;;;14.40;45.60;;;;;;4981055;28;20623;-75
2023/03/17 08:39:12;;;;;;;0.00;0.00;;;14.10;46.30;;;;;;4975062;28;20076;-76
2023/03/17 08:41:38;;;;;;;0.10;0.10;;;14.20;45.70;;;;;;4983625;28;20034;-78
2023/03/17 08:44:07;;;;;;;0.53;0.20;;;14.30;45.80;;;;;;4983397;28;20030;-76
2023/03/17 08:46:35;;;;;;;1.35;0.80;;;14.50;45.50;;;;;;4974776;28;20030;-79
2023/03/17 08:49:02;;;;;;;0.17;0.17;;;14.70;44.80;;;;;;4995838;28;20026;-76
2023/03/17 08:51:33;;;;;;;0.00;0.00;;;14.70;45.60;;;;;;4999922;28;20093;-76
2023/03/17 08:54:00;;;;;;;0.00;0.00;;;14.60;45.80;;;;;;4994653;28;20023;-77
2023/03/17 08:56:29;;;;;;;0.00;0.00;;;14.50;44.60;;;;;;4995716;28;20010;-77
2023/03/17 08:58:55;;;;;;;0.00;0.00;;;14.60;45.60;;;;;;4977699;28;20029;-77
2023/03/17 09:01:23;;;;;;;0.00;0.00;;;14.80;46.00;;;;;;4980126;28;20532;-75
2023/03/17 09:03:53;;;;;;;0.00;0.00;;;14.60;46.10;;;;;;4977658;28;20472;-77
2023/03/17 09:06:21;;;;;;;0.00;0.00;;;14.70;46.50;;;;;;4996986;28;20030;-75
2023/03/17 09:08:49;;;;;;;0.00;0.00;;;15.00;45.50;;;;;;4975416;28;20057;-75
2023/03/17 09:11:19;;;;;;;0.00;0.00;;;14.70;45.80;;;;;;4981059;28;20026;-76
2023/03/17 09:13:46;;;;;;;0.00;0.00;;;14.40;47.30;;;;;;4982075;28;20131;-76
2023/03/17 09:16:18;;;;;;;0.20;0.20;;;15.10;46.60;;;;;;4980518;28;20022;-77
2023/03/17 09:18:45;;;;;;;0.00;0.00;;;14.60;45.90;;;;;;4981530;28;20289;-76
2023/03/17 09:21:13;;;;;;;0.00;0.00;;;14.00;46.80;;;;;;4981433;28;20046;-76
2023/03/17 09:23:39;;;;;;;0.00;0.00;;;14.40;46.90;;;;;;4996996;28;20033;-77
2023/03/17 09:26:04;;;;;;;0.00;0.00;;;14.40;47.20;;;;;;4992517;28;20022;-76
2023/03/17 09:28:30;;;;;;;0.00;0.00;;;15.00;46.80;;;;;;4981417;28;20034;-75
2023/03/17 09:31:01;;;;;;;0.00;0.00;;;15.20;46.00;;;;;;4981493;28;20265;-76
2023/03/17 09:33:32;;;;;;;0.00;0.00;;;14.20;46.40;;;;;;4982503;28;20273;-76
2023/03/17 09:36:00;;;;;;;0.00;0.00;;;13.90;46.40;;;;;;4996554;28;20026;-76
2023/03/17 09:38:26;;;;;;;0.00;0.00;;;13.90;47.00;;;;;;4996265;28;20030;-76
2023/03/17 09:40:57;;;;;;;0.00;0.00;;;13.80;47.80;;;;;;4998842;28;20025;-76
2023/03/17 09:43:43;;;;;;;0.00;0.00;;;13.60;48.10;;;;;;4999590;28;20454;-76
2023/03/17 09:46:32;;;;;;;0.00;0.00;;;13.00;48.20;;;;;;4980716;28;20049;-76
2023/03/17 09:49:02;;;;;;;0.00;0.00;;;12.80;48.70;;;;;;4995357;28;20030;-77
2023/03/17 09:51:35;;;;;;;0.63;0.38;;;13.00;48.10;;;;;;4999773;28;20034;-76
2023/03/17 09:54:15;;;;;;;0.25;0.25;;;12.50;48.00;;;;;;4979978;28;20120;-77
2023/03/17 09:56:48;;;;;;;0.22;0.22;;;12.40;48.10;;;;;;4981294;28;20049;-76
2023/03/17 09:59:35;;;;;;;0.00;0.00;;;13.00;47.70;;;;;;4977242;28;20041;-77
2023/03/17 10:02:30;;;;;;;0.00;0.00;;;14.10;46.90;;;;;;4996341;28;20033;-77
2023/03/17 10:05:20;;;;;;;0.00;0.00;;;15.50;46.60;;;;;;4976783;28;20254;-76
2023/03/17 10:08:28;;;;;;;0.00;0.00;;;16.20;43.30;;;;;;4975541;28;20021;-79
2023/03/17 10:11:25;;;;;;;2.35;0.55;;;16.00;43.40;;;;;;4978835;28;20060;-80
2023/03/17 10:14:16;;;;;;;0.00;0.00;;;15.30;43.50;;;;;;4997360;28;20081;-79
2023/03/17 10:17:02;;;;;;;0.00;0.00;;;16.50;43.20;;;;;;4983992;28;20679;-79
2023/03/17 10:19:39;;;;;;;0.00;0.00;;;17.40;42.30;;;;;;4981132;28;20869;-78
2023/03/17 10:22:29;;;;;;;0.00;0.00;;;16.20;42.50;;;;;;4983411;28;20034;-76
2023/03/17 10:25:02;;;;;;;0.00;0.00;;;16.90;43.00;;;;;;4975838;28;20041;-77
2023/03/17 10:27:33;;;;;;;0.00;0.00;;;18.10;40.70;;;;;;4995362;28;20092;-76
2023/03/17 10:29:59;;;;;;;0.00;0.00;;;19.10;39.70;;;;;;4983117;28;20154;-76
2023/03/17 10:32:26;;;;;;;0.03;0.03;;;18.40;40.00;;;;;;5002354;28;20030;-76
2023/03/17 10:34:53;;;;;;;0.00;0.00;;;17.30;40.30;;;;;;4995349;28;20042;-75
2023/03/17 10:37:26;;;;;;;0.00;0.00;;;17.90;39.60;;;;;;4980773;28;20015;-75
2023/03/17 10:39:55;;;;;;;0.00;0.00;;;18.80;40.20;;;;;;4999275;28;20030;-75
2023/03/17 10:42:28;;;;;;;0.00;0.00;;;18.00;39.80;;;;;;4978613;28;20080;-75
2023/03/17 10:44:54;;;;;;;2.35;0.45;;;18.90;39.00;;;;;;4981801;28;20019;-75
2023/03/17 10:47:30;;;;;;;0.00;0.00;;;17.70;39.60;;;;;;4980424;28;20029;-75
2023/03/17 10:49:58;;;;;;;0.00;0.00;;;17.10;39.90;;;;;;4979796;28;20407;-75
2023/03/17 10:52:34;;;;;;;0.00;0.00;;;16.90;40.00;;;;;;4993120;28;20037;-74
2023/03/17 10:55:04;;;;;;;0.00;0.00;;;18.20;39.90;;;;;;4993857;28;21379;-74
2023/03/17 10:57:36;;;;;;;0.00;0.00;;;18.00;39.00;;;;;;4979319;28;20045;-75
2023/03/17 11:00:10;;;;;;;0.00;0.00;;;16.50;40.70;;;;;;4994854;28;20889;-75
2023/03/17 11:02:43;;;;;;;0.00;0.00;;;17.80;40.30;;;;;;4979772;28;20030;-75
2023/03/17 11:05:23;;;;;;;0.00;0.00;;;18.50;38.10;;;;;;4979383;28;20029;-75
2023/03/17 11:16:17;;;;;;;0.08;0.08;;;14.00;43.40;;;;;;5153403;23;20071;-73
2023/03/17 11:18:47;;;;;;;0.40;0.30;;;13.30;43.90;;;;;;4930662;28;20026;-73
2023/03/17 11:21:46;;;;;;;0.00;0.00;;;12.70;44.30;;;;;;4946631;28;20022;-73
2023/03/17 11:24:28;;;;;;;0.28;0.10;;;12.60;45.70;;;;;;4945440;28;20094;-73
2023/03/17 11:27:10;;;;;;;0.00;0.00;;;12.40;45.40;;;;;;4939903;28;20027;-73
2023/03/17 11:29:41;;;;;;;0.00;0.00;;;12.60;45.10;;;;;;4953014;28;20023;-74
2023/03/17 11:32:31;;;;;;;0.00;0.00;;;12.70;44.50;;;;;;4930331;28;20027;-73
2023/03/17 11:35:12;;;;;;;0.08;0.08;;;12.80;44.40;;;;;;4937517;28;20932;-72
2023/03/17 11:37:56;;;;;;;0.00;0.00;;;12.80;44.50;;;;;;4940586;28;20085;-74
2023/03/17 11:40:31;;;;;;;0.00;0.00;;;13.00;45.00;;;;;;4946856;28;20031;-74
2023/03/17 11:43:04;;;;;;;0.00;0.00;;;13.00;45.10;;;;;;4948975;28;20091;-72
2023/03/17 11:45:51;;;;;;;0.00;0.00;;;13.00;44.40;;;;;;4942513;28;20113;-72
2023/03/17 11:48:45;;;;;;;0.00;0.00;;;12.60;44.70;;;;;;4944035;28;20039;-72
2023/03/17 11:51:34;;;;;;;0.00;0.00;;;12.20;45.20;;;;;;4938698;28;20023;-71
2023/03/17 11:54:35;;;;;;;0.00;0.00;;;12.40;44.80;;;;;;4946248;28;20086;-72
2023/03/17 11:57:19;;;;;;;0.00;0.00;;;12.10;45.00;;;;;;4939209;28;20137;-72
2023/03/17 12:00:00;;;;;;;0.00;0.00;;;12.30;44.80;;;;;;4947816;28;20023;-72
2023/03/17 12:02:29;;;;;;;0.55;0.55;;;12.40;44.90;;;;;;4952904;28;20023;-72
2023/03/17 12:05:01;;;;;;;0.20;0.13;;;12.40;44.40;;;;;;4956715;28;20022;-73
2023/03/17 12:07:47;;;;;;;0.25;0.25;;;12.30;44.80;;;;;;4940686;28;20018;-72
2023/03/17 12:10:24;;;;;;;0.00;0.00;;;12.60;44.70;;;;;;4953654;28;20034;-72
2023/03/17 12:13:08;;;;;;;0.00;0.00;;;12.60;44.50;;;;;;4940129;28;20034;-72
2023/03/17 12:15:35;;;;;;;0.00;0.00;;;12.50;44.70;;;;;;4945357;28;20045;-76
2023/03/17 12:18:09;;;;;;;0.03;0.03;;;12.60;44.50;;;;;;4935574;28;20106;-72
2023/03/17 12:20:47;;;;;;;0.00;0.00;;;12.50;44.60;;;;;;4950421;28;20087;-73
2023/03/17 12:23:28;;;;;;;0.00;0.00;;;12.50;44.50;;;;;;4948232;28;20065;-71
2023/03/17 12:26:06;;;;;;;0.00;0.00;;;12.70;44.40;;;;;;4949518;28;20026;-72
2023/03/17 12:28:43;;;;;;;0.10;0.10;;;12.80;44.60;;;;;;4948017;28;20030;-72
2023/03/17 12:31:21;;;;;;;;;;;12.70;44.40;;;;;;4949016;28;20492;-73
2023/03/17 12:34:06;;;;;;;0.00;0.00;;;12.80;45.10;;;;;;4952819;28;19917;-72
2023/03/17 12:36:35;;;;;;;1.08;0.35;;;12.90;44.20;;;;;;4942173;28;20033;-72
2023/03/17 12:39:10;;;;;;;0.00;0.00;;;12.90;44.20;;;;;;4949536;28;20123;-73
2023/03/17 12:41:52;;;;;;;0.22;0.15;;;12.80;44.30;;;;;;4947947;28;20027;-73
2023/03/17 12:45:00;;;;;;;1.35;0.13;;;13.00;44.20;;;;;;4955204;28;20019;-73
2023/03/17 12:47:57;;;;;;;0.00;0.00;;;13.10;44.10;;;;;;4909031;28;20821;-72
2023/03/17 12:50:41;;;;;;;0.05;0.03;;;12.70;44.50;;;;;;4939503;28;20159;-72
2023/03/17 12:53:32;;;;;;;0.00;0.00;;;12.80;44.50;;;;;;4948800;28;20649;-73
2023/03/17 12:56:29;;;;;;;0.00;0.00;;;12.90;45.00;;;;;;4936179;28;20060;-71
2023/03/17 12:59:20;;;;;;;0.00;0.00;;;12.80;43.90;;;;;;4933986;28;20066;-72
2023/03/17 13:01:57;;;;;;;0.38;0.38;;;12.70;44.20;;;;;;4945850;28;20073;-73
2023/03/17 13:04:34;;;;;;;0.00;0.00;;;12.70;44.20;;;;;;4953317;28;20139;-73
2023/03/17 13:07:11;;;;;;;0.00;0.00;;;12.70;44.60;;;;;;4945890;28;20035;-72
2023/03/17 13:09:45;;;;;;;;;;;12.60;43.80;;;;;;4951770;28;20012;-72
2023/03/17 13:12:33;;;;;;;0.82;0.80;;;12.30;44.00;;;;;;4938431;28;20001;-72
2023/03/17 13:15:00;;;;;;;0.20;0.20;;;12.40;44.30;;;;;;4951287;28;20043;-73
2023/03/17 13:17:27;;;;;;;0.00;0.00;;;12.60;44.40;;;;;;4949520;28;20062;-71
2023/03/17 13:20:14;;;;;;;2.92;0.35;;;12.70;44.00;;;;;;4950455;28;20062;-71
2023/03/17 13:23:01;;;;;;;0.00;0.00;;;12.70;43.80;;;;;;4944156;28;20102;-73
2023/03/17 13:25:52;;;;;;;0.00;0.00;;;12.70;44.10;;;;;;4946124;28;20023;-73
2023/03/17 13:28:24;;;;;;;0.00;0.00;;;12.90;44.20;;;;;;4928031;28;20687;-72
2023/03/17 13:31:13;;;;;;;0.00;0.00;;;12.80;43.20;;;;;;4951840;28;20054;-70